createdAt,value
2023-01-18T00:00:18.122Z,3.10
2023-01-18T00:05:20.231Z,3.22
2023-01-18T00:10:23.663Z,2.75
2023-01-18T00:15:25.404Z,3.88
2023-01-18T00:20:29.282Z,2.92
2023-01-18T00:25:31.146Z,3.65
2023-01-18T00:30:32.982Z,3.00
2023-01-18T00:35:34.817Z,3.28
2023-01-18T00:40:36.592Z,3.03
2023-01-18T00:45:38.537Z,3.47
2023-01-18T00:50:40.368Z,3.88
2023-01-18T00:55:42.229Z,3.20
2023-01-18T01:00:44.230Z,1.98
2023-01-18T01:06:05.077Z,2.50
2023-01-18T01:11:12.556Z,3.00
2023-01-18T01:16:32.801Z,2.58
2023-01-18T01:21:53.243Z,2.72
2023-01-18T01:26:55.205Z,2.80
2023-01-18T01:31:57.033Z,2.40
2023-01-18T01:36:59.026Z,3.00
2023-01-18T01:42:02.072Z,2.88
2023-01-18T01:47:13.906Z,3.40
2023-01-18T01:52:25.423Z,8.07
2023-01-18T01:57:31.965Z,7.05
2023-01-18T02:02:36.612Z,6.32
2023-01-18T02:07:38.969Z,4.38
2023-01-18T02:12:44.758Z,3.85
2023-01-18T02:18:05.078Z,4.50
2023-01-18T02:23:25.317Z,2.92
2023-01-18T02:28:33.682Z,3.80
2023-01-18T02:33:58.339Z,3.58
2023-01-18T02:39:32.020Z,4.30
2023-01-18T02:44:59.174Z,3.33
2023-01-18T02:50:02.512Z,3.92
2023-01-18T02:55:06.527Z,3.47
2023-01-18T03:00:11.379Z,3.13
2023-01-18T03:05:13.796Z,3.58
2023-01-18T03:10:17.024Z,4.05
2023-01-18T03:15:29.107Z,4.20
2023-01-18T03:20:35.350Z,4.15
2023-01-18T03:25:59.321Z,4.40
2023-01-18T03:31:24.579Z,4.13
2023-01-18T03:36:43.810Z,3.28
2023-01-18T03:41:51.719Z,3.92
2023-01-18T03:51:58.169Z,3.75
2023-01-18T03:57:10.243Z,3.72
2023-01-18T04:02:12.219Z,3.42
2023-01-18T04:07:14.289Z,4.05
2023-01-18T04:12:16.098Z,5.65
2023-01-18T04:17:18.413Z,9.63
2023-01-18T04:22:20.155Z,7.55
2023-01-18T04:27:24.288Z,5.38
2023-01-18T04:32:26.338Z,5.60
2023-01-18T04:37:34.299Z,5.38
2023-01-18T04:47:37.687Z,5.65
2023-01-18T04:52:39.505Z,5.28
2023-01-18T04:57:42.967Z,6.13
2023-01-18T05:02:44.967Z,5.70
2023-01-18T05:07:46.848Z,6.93
2023-01-18T05:12:48.852Z,11.10
2023-01-18T05:17:50.683Z,7.43
2023-01-18T05:22:52.530Z,7.80
2023-01-18T05:27:54.383Z,6.80
2023-01-18T05:32:56.609Z,8.13
2023-01-18T05:37:58.756Z,5.53
2023-01-18T05:43:00.909Z,19.77
2023-01-18T05:48:04.130Z,7.20
2023-01-18T05:53:06.859Z,16.25
2023-01-18T05:58:09.119Z,10.45
2023-01-18T06:03:11.958Z,9.50
2023-01-18T06:08:14.264Z,8.40
2023-01-18T06:13:16.075Z,7.05
2023-01-18T06:18:17.980Z,7.32
2023-01-18T06:23:19.876Z,7.25
2023-01-18T06:28:22.757Z,7.22
2023-01-18T06:33:25.148Z,6.97
2023-01-18T06:38:27.313Z,6.63
2023-01-18T06:43:29.467Z,6.15
2023-01-18T06:48:31.337Z,7.72
2023-01-18T06:53:33.213Z,7.78
2023-01-18T06:58:34.970Z,8.43
2023-01-18T07:03:39.057Z,6.20
2023-01-18T07:08:42.226Z,5.00
2023-01-18T07:13:44.210Z,6.40
2023-01-18T07:18:47.738Z,7.22
2023-01-18T07:23:49.580Z,7.18
2023-01-18T07:28:52.069Z,6.50
2023-01-18T07:33:53.862Z,6.57
2023-01-18T07:38:55.791Z,5.75
2023-01-18T07:43:57.539Z,5.22
2023-01-18T07:48:59.457Z,5.75
2023-01-18T07:54:01.267Z,6.40
2023-01-18T07:59:03.063Z,6.53
2023-01-18T08:04:06.085Z,6.22
2023-01-18T08:09:08.089Z,5.75
2023-01-18T08:14:09.922Z,11.02
2023-01-18T08:19:11.775Z,7.05
2023-01-18T08:24:14.140Z,7.60
2023-01-18T08:29:15.894Z,7.95
2023-01-18T08:34:17.795Z,8.07
2023-01-18T08:39:19.594Z,9.65
2023-01-18T08:44:21.852Z,7.57
2023-01-18T08:49:23.636Z,7.45
2023-01-18T08:54:26.162Z,7.53
2023-01-18T08:59:28.395Z,9.80
2023-01-18T09:04:30.348Z,8.13
2023-01-18T09:09:32.280Z,9.05
2023-01-18T09:14:34.137Z,14.80
2023-01-18T09:19:36.034Z,10.70
2023-01-18T09:24:38.383Z,8.18
2023-01-18T09:29:40.477Z,9.70
2023-01-18T09:34:42.597Z,8.98
2023-01-18T09:39:51.951Z,8.77
2023-01-18T09:44:58.849Z,9.07
2023-01-18T09:50:11.014Z,10.23
2023-01-18T09:55:22.952Z,9.93
2023-01-18T10:00:28.810Z,10.65
2023-01-18T10:05:34.804Z,11.27
2023-01-18T10:10:39.849Z,9.07
2023-01-18T10:15:42.575Z,11.02
2023-01-18T10:20:44.348Z,10.38
2023-01-18T10:25:53.389Z,10.95
2023-01-18T10:30:58.171Z,11.35
2023-01-18T10:36:22.363Z,10.63
2023-01-18T10:41:31.726Z,10.13
2023-01-18T10:46:33.533Z,10.35
2023-01-18T10:51:37.669Z,10.65
2023-01-18T10:56:40.318Z,10.18
2023-01-18T11:01:54.490Z,10.88
2023-01-18T11:06:59.867Z,10.63
2023-01-18T11:12:42.777Z,11.25
2023-01-18T11:18:00.436Z,9.82
2023-01-18T11:23:16.360Z,10.88
2023-01-18T11:28:26.613Z,11.25
2023-01-18T11:33:30.970Z,10.25
2023-01-18T11:38:34.826Z,9.15
2023-01-18T11:43:39.496Z,10.50
2023-01-18T11:48:52.663Z,9.88
2023-01-18T11:54:05.825Z,10.30
2023-01-18T11:59:47.031Z,11.55
2023-01-18T12:04:51.569Z,11.07
2023-01-18T12:09:58.046Z,10.07
2023-01-18T12:15:14.690Z,10.68
2023-01-18T12:20:53.851Z,9.05
2023-01-18T12:26:12.310Z,10.27
2023-01-18T12:31:40.045Z,9.32
2023-01-18T12:36:47.449Z,8.98
2023-01-18T12:42:07.710Z,8.70
2023-01-18T12:47:35.031Z,9.98
2023-01-18T12:52:45.545Z,8.98
2023-01-18T12:57:51.162Z,10.52
2023-01-18T13:02:57.523Z,9.65
2023-01-18T13:08:06.461Z,9.35
2023-01-18T13:13:17.616Z,8.73
2023-01-18T13:18:33.433Z,8.05
2023-01-18T13:23:56.405Z,9.40
2023-01-18T13:29:10.453Z,7.97
2023-01-18T13:34:48.079Z,7.68
2023-01-18T13:39:52.555Z,8.70
2023-01-18T13:45:25.043Z,8.57
2023-01-18T13:50:36.392Z,9.07
2023-01-18T13:55:53.405Z,9.40
2023-01-18T14:01:06.098Z,7.63
2023-01-18T14:06:15.910Z,9.13
2023-01-18T14:11:27.399Z,7.82
2023-01-18T14:16:35.170Z,7.68
2023-01-18T14:22:16.561Z,7.68
2023-01-18T14:27:25.795Z,6.97
2023-01-18T14:32:35.808Z,7.70
2023-01-18T14:37:37.901Z,8.45
2023-01-18T14:42:50.354Z,7.53
2023-01-18T14:47:52.730Z,7.55
2023-01-18T14:52:54.717Z,7.75
2023-01-18T14:58:23.146Z,6.45
2023-01-18T15:03:29.796Z,7.43
2023-01-18T15:08:34.665Z,6.90
2023-01-18T15:13:49.231Z,5.90
2023-01-18T15:18:54.386Z,8.50
2023-01-18T15:24:09.184Z,8.45
2023-01-18T15:29:16.621Z,6.72
2023-01-18T15:34:25.364Z,7.40
2023-01-18T15:39:27.686Z,6.18
2023-01-18T15:44:50.018Z,7.15
2023-01-18T15:49:54.435Z,5.50
2023-01-18T15:54:56.940Z,5.80
2023-01-18T16:00:01.830Z,4.68
2023-01-18T16:05:21.317Z,5.47
2023-01-18T16:10:30.563Z,4.95
2023-01-18T16:15:32.586Z,6.05
2023-01-18T16:20:35.927Z,5.13
2023-01-18T16:25:37.999Z,5.03
2023-01-18T16:30:40.351Z,4.85
2023-01-18T16:35:42.306Z,4.15
2023-01-18T16:40:46.954Z,5.43
2023-01-18T16:45:51.463Z,4.75
2023-01-18T16:50:54.230Z,4.68
2023-01-18T16:55:56.777Z,4.00
2023-01-18T17:01:07.619Z,4.18
2023-01-18T17:06:16.760Z,3.67
2023-01-18T17:11:18.579Z,3.20
2023-01-18T17:16:20.771Z,3.50
2023-01-18T17:21:22.922Z,2.80
2023-01-18T17:26:24.761Z,3.92
2023-01-18T17:31:28.499Z,3.03
2023-01-18T17:36:30.308Z,2.75
2023-01-18T17:41:33.815Z,2.67
2023-01-18T17:46:36.656Z,2.80
2023-01-18T17:51:38.654Z,3.08
2023-01-18T17:56:40.473Z,2.70
2023-01-18T18:01:42.536Z,1.95
2023-01-18T18:06:53.746Z,2.13
2023-01-18T18:11:56.315Z,2.70
2023-01-18T18:16:58.291Z,3.67
2023-01-18T18:22:01.501Z,3.35
2023-01-18T18:27:03.275Z,3.17
2023-01-18T18:32:07.037Z,3.45
2023-01-18T18:37:08.958Z,2.80
2023-01-18T18:42:10.750Z,2.10
2023-01-18T18:47:13.483Z,2.13
2023-01-18T18:52:15.312Z,1.80
2023-01-18T18:57:17.168Z,1.40
2023-01-18T19:02:19.473Z,1.75
2023-01-18T19:07:21.547Z,1.73
2023-01-18T19:12:23.456Z,1.58
2023-01-18T19:17:30.637Z,1.50
2023-01-18T19:22:33.048Z,2.10
2023-01-18T19:27:34.868Z,1.38
2023-01-18T19:32:36.944Z,1.75
2023-01-18T19:37:38.800Z,2.13
2023-01-18T19:42:40.921Z,2.10
2023-01-18T19:47:42.906Z,2.22
2023-01-18T19:52:46.289Z,2.08
2023-01-18T19:57:49.031Z,1.02
2023-01-18T20:02:50.921Z,1.60
2023-01-18T20:07:53.172Z,2.00
2023-01-18T20:12:56.095Z,2.65
2023-01-18T20:17:57.928Z,2.17
2023-01-18T20:23:04.375Z,3.22
2023-01-18T20:28:06.336Z,2.90
2023-01-18T20:33:08.180Z,3.70
2023-01-18T20:38:10.653Z,3.72
2023-01-18T20:43:12.421Z,3.28
2023-01-18T20:48:14.391Z,4.65
2023-01-18T20:53:16.462Z,4.05
2023-01-18T20:58:18.193Z,4.35
2023-01-18T21:03:20.570Z,3.65
2023-01-18T21:08:22.608Z,4.00
2023-01-18T21:13:24.871Z,4.50
2023-01-18T21:18:27.299Z,3.97
2023-01-18T21:23:29.807Z,4.35
2023-01-18T21:28:31.567Z,4.30
2023-01-18T21:33:33.884Z,4.38
2023-01-18T21:38:36.199Z,4.45
2023-01-18T21:43:56.816Z,4.00
2023-01-18T21:49:06.823Z,5.07
2023-01-18T21:54:16.664Z,4.13
2023-01-18T21:59:18.547Z,4.35
2023-01-18T22:04:39.065Z,4.18
2023-01-18T22:09:42.721Z,5.07
2023-01-18T22:14:45.807Z,4.70
2023-01-18T22:19:48.253Z,5.50
2023-01-18T22:24:50.102Z,4.57
2023-01-18T22:29:51.864Z,5.10
2023-01-18T22:34:53.739Z,5.43
2023-01-18T22:39:55.568Z,5.00
2023-01-18T22:44:57.497Z,4.95
2023-01-18T22:49:59.245Z,5.28
2023-01-18T22:55:01.098Z,5.20
2023-01-18T23:00:04.702Z,5.32
2023-01-18T23:05:07.143Z,5.38
2023-01-18T23:10:09.740Z,6.97
2023-01-18T23:15:31.421Z,6.30
2023-01-18T23:20:33.389Z,5.75
2023-01-18T23:25:35.347Z,5.57
2023-01-18T23:30:37.156Z,6.25
2023-01-18T23:35:38.967Z,6.03
2023-01-18T23:40:59.451Z,5.88
2023-01-18T23:46:19.734Z,5.90
2023-01-18T23:51:40.137Z,6.05
2023-01-18T23:56:43.009Z,4.85
